Time;durP1;ratioP1;P1;durP2;ratioP2;P2;SDS_P1;SDS_P2;PMS_P1;PMS_P2;Temp;Humidity;BMP_temperature;BMP_pressure;BME280_temperature;BME280_humidity;BME280_pressure;Samples;Min_cycle;Max_cycle;Signal;HPM_P1;HPM_P2
2022/10/30 00:00:38;;;;;;;6.40;3.72;;;19.10;99.10;;;;;;2093901;28;20021;-72
2022/10/30 00:01:39;;;;;;;8.50;4.35;;;19.10;99.30;;;;;;2094898;28;20028;-72
2022/10/30 00:02:39;;;;;;;11.30;4.43;;;19.10;99.10;;;;;;2094153;28;20032;-72
2022/10/30 00:03:40;;;;;;;13.02;4.53;;;19.10;99.20;;;;;;2094775;28;20499;-72
2022/10/30 00:04:40;;;;;;;10.18;4.25;;;19.10;99.80;;;;;;2092942;28;20031;-72
2022/10/30 00:05:43;;;;;;;13.65;4.88;;;19.10;99.70;;;;;;2093779;28;21201;-72
2022/10/30 00:06:44;;;;;;;9.70;4.07;;;19.10;99.90;;;;;;2093142;28;20013;-72
2022/10/30 00:07:44;;;;;;;10.02;3.97;;;19.10;99.90;;;;;;2092007;28;20069;-72
2022/10/30 00:08:45;;;;;;;12.43;3.80;;;19.10;99.90;;;;;;2092893;28;20037;-72
2022/10/30 00:09:45;;;;;;;10.27;4.32;;;19.10;99.90;;;;;;2093898;28;20021;-72
2022/10/30 00:10:49;;;;;;;8.68;3.50;;;19.10;99.90;;;;;;2095359;28;20068;-72
2022/10/30 00:11:49;;;;;;;10.88;4.20;;;19.10;99.90;;;;;;2093513;28;20056;-72
2022/10/30 00:12:50;;;;;;;10.65;4.20;;;19.10;99.90;;;;;;2092707;28;20064;-72
2022/10/30 00:13:50;;;;;;;9.05;3.78;;;19.10;99.90;;;;;;2092956;28;20040;-72
2022/10/30 00:14:51;;;;;;;11.90;4.70;;;19.10;99.90;;;;;;2094445;28;20047;-72
2022/10/30 00:15:52;;;;;;;7.97;4.35;;;19.10;99.90;;;;;;2096296;28;20063;-72
2022/10/30 00:16:53;;;;;;;8.85;3.83;;;19.10;99.90;;;;;;2093486;28;20025;-72
2022/10/30 00:17:53;;;;;;;7.95;4.22;;;19.10;99.90;;;;;;2092707;28;20028;-72
2022/10/30 00:18:54;;;;;;;11.85;4.63;;;19.10;99.90;;;;;;2091987;28;20029;-72
2022/10/30 00:19:54;;;;;;;11.77;4.45;;;19.00;99.90;;;;;;2095399;28;20032;-72
2022/10/30 00:20:55;;;;;;;9.98;4.35;;;19.00;99.90;;;;;;2095367;28;20564;-72
2022/10/30 00:21:56;;;;;;;12.25;4.18;;;19.00;99.90;;;;;;2095424;28;20079;-72
2022/10/30 00:22:57;;;;;;;14.10;4.70;;;19.00;99.90;;;;;;2092475;28;20035;-72
2022/10/30 00:23:57;;;;;;;13.05;4.55;;;19.00;99.90;;;;;;2093952;28;20039;-72
2022/10/30 00:24:58;;;;;;;8.30;3.75;;;19.00;99.90;;;;;;2094281;28;20029;-72
2022/10/30 00:26:05;;;;;;;8.60;4.05;;;19.00;99.90;;;;;;2090690;28;20734;-72
2022/10/30 00:27:05;;;;;;;10.25;4.05;;;19.00;99.90;;;;;;2092532;28;20032;-72
2022/10/30 00:28:07;;;;;;;13.15;5.40;;;19.00;99.90;;;;;;2093436;28;20033;-72
2022/10/30 00:29:07;;;;;;;14.70;4.78;;;19.00;99.90;;;;;;2095036;28;20056;-72
2022/10/30 00:30:09;;;;;;;11.40;4.20;;;19.00;99.90;;;;;;2094425;28;20024;-72
2022/10/30 00:31:09;;;;;;;9.57;4.05;;;19.00;99.90;;;;;;2093301;28;20025;-72
2022/10/30 00:32:10;;;;;;;10.40;4.50;;;19.00;99.90;;;;;;2093154;28;20059;-72
2022/10/30 00:33:10;;;;;;;10.00;4.40;;;18.90;99.90;;;;;;2094555;28;20024;-72
2022/10/30 00:34:11;;;;;;;9.80;3.95;;;19.00;99.90;;;;;;2093203;28;20013;-72
2022/10/30 00:35:11;;;;;;;11.80;4.28;;;19.00;99.90;;;;;;2093811;28;20035;-72
2022/10/30 00:36:12;;;;;;;10.10;4.15;;;18.90;99.90;;;;;;2094904;28;20096;-72
2022/10/30 00:37:12;;;;;;;13.70;5.22;;;19.00;99.90;;;;;;2093172;28;20028;-72
2022/10/30 00:38:13;;;;;;;9.63;3.90;;;18.90;99.90;;;;;;2092168;28;20050;-72
2022/10/30 00:39:14;;;;;;;11.68;4.47;;;18.90;99.90;;;;;;2093028;28;20016;-72
2022/10/30 00:40:16;;;;;;;8.57;4.68;;;18.90;99.90;;;;;;2090516;28;20470;-72
2022/10/30 00:41:19;;;;;;;8.57;4.13;;;18.90;99.90;;;;;;2095300;28;20103;-72
2022/10/30 00:42:19;;;;;;;7.35;3.95;;;18.90;99.90;;;;;;2094864;28;20412;-72
2022/10/30 00:43:37;;;;;;;8.18;3.97;;;18.90;99.90;;;;;;2093579;28;21967;-72
2022/10/30 00:44:44;;;;;;;9.60;4.18;;;18.80;99.90;;;;;;2094878;28;20027;-72
2022/10/30 00:45:44;;;;;;;8.20;3.92;;;18.90;99.90;;;;;;2092036;28;20022;-72
2022/10/30 00:46:45;;;;;;;9.10;4.68;;;18.90;99.90;;;;;;2093508;28;20025;-73
2022/10/30 00:47:55;;;;;;;10.38;4.00;;;18.80;99.90;;;;;;2094077;28;20052;-72
2022/10/30 00:49:04;;;;;;;;;;;18.80;99.90;;;;;;2093268;28;20375;-72
2022/10/30 00:50:29;;;;;;;8.18;3.78;;;18.70;99.90;;;;;;2093876;28;20428;-72
2022/10/30 00:51:32;;;;;;;13.73;4.50;;;18.70;99.90;;;;;;2093083;28;20488;-72
2022/10/30 00:52:44;;;;;;;10.95;4.32;;;18.70;99.90;;;;;;2093136;28;20082;-72
2022/10/30 00:53:47;;;;;;;9.95;4.03;;;18.70;99.90;;;;;;2093409;28;20186;-72
2022/10/30 00:54:48;;;;;;;7.38;3.75;;;18.70;99.90;;;;;;2094167;28;20025;-72
2022/10/30 00:55:56;;;;;;;9.05;3.97;;;18.70;99.90;;;;;;2095090;28;20040;-72
2022/10/30 00:56:56;;;;;;;12.88;4.35;;;18.70;99.90;;;;;;2095195;28;20715;-72
2022/10/30 00:58:00;;;;;;;10.70;4.60;;;18.70;99.90;;;;;;2093763;28;20032;-72
2022/10/30 00:59:06;;;;;;;10.68;4.10;;;18.70;99.90;;;;;;2095239;28;20423;-72
2022/10/30 01:00:08;;;;;;;8.20;4.57;;;18.70;99.90;;;;;;2095034;28;20108;-72
2022/10/30 01:01:14;;;;;;;8.98;4.05;;;18.70;99.90;;;;;;2095255;28;20782;-72
2022/10/30 01:02:15;;;;;;;12.07;4.15;;;18.70;99.90;;;;;;2093215;28;20119;-72
2022/10/30 01:03:18;;;;;;;9.02;3.65;;;18.70;99.90;;;;;;2093624;28;20111;-72
2022/10/30 01:04:20;;;;;;;8.48;4.20;;;18.70;99.90;;;;;;2092392;28;20043;-72
2022/10/30 01:05:27;;;;;;;9.38;4.50;;;18.70;99.90;;;;;;2091770;28;20059;-72
2022/10/30 01:06:31;;;;;;;8.70;4.18;;;18.70;99.90;;;;;;2084645;28;20048;-72
2022/10/30 01:07:31;;;;;;;12.07;4.53;;;18.70;99.90;;;;;;2091729;28;20028;-72
2022/10/30 01:08:33;;;;;;;7.70;4.50;;;18.70;99.90;;;;;;2092381;28;20123;-72
2022/10/30 01:09:34;;;;;;;10.73;4.10;;;18.70;99.90;;;;;;2095263;28;20033;-72
2022/10/30 01:10:34;;;;;;;8.35;4.10;;;18.70;99.90;;;;;;2092772;28;20051;-72
2022/10/30 01:11:35;;;;;;;8.52;3.97;;;18.70;99.90;;;;;;2094996;28;20024;-72
2022/10/30 01:12:37;;;;;;;8.55;3.78;;;18.60;99.90;;;;;;2092456;28;20388;-72
2022/10/30 01:13:39;;;;;;;8.38;4.68;;;18.60;99.90;;;;;;2092377;28;20024;-72
2022/10/30 01:14:48;;;;;;;9.07;4.13;;;18.70;99.90;;;;;;2094681;28;20017;-72
2022/10/30 01:16:47;;;;;;;11.25;4.00;;;18.60;99.90;;;;;;2092155;28;20058;-72
2022/10/30 01:18:07;;;;;;;6.63;3.75;;;18.60;99.90;;;;;;2057615;28;20479;-72
2022/10/30 01:19:29;;;;;;;11.32;5.07;;;18.60;99.90;;;;;;2092393;28;20074;-72
2022/10/30 01:20:52;;;;;;;9.02;4.13;;;18.50;99.90;;;;;;2093729;28;20031;-72
2022/10/30 01:22:11;;;;;;;8.45;3.92;;;18.50;99.90;;;;;;2094527;28;20487;-72
2022/10/30 01:23:36;;;;;;;10.10;4.25;;;18.50;99.90;;;;;;2094114;28;20036;-72
2022/10/30 01:24:55;;;;;;;8.32;4.25;;;18.50;99.90;;;;;;2094738;28;20017;-72
2022/10/30 01:26:22;;;;;;;7.15;4.28;;;18.40;99.90;;;;;;2092372;28;20122;-72
2022/10/30 01:27:43;;;;;;;7.68;4.28;;;18.40;99.90;;;;;;2093976;28;20024;-72
2022/10/30 01:29:10;;;;;;;13.25;4.25;;;18.40;99.90;;;;;;2094210;28;20088;-72
2022/10/30 01:30:32;;;;;;;10.02;4.45;;;18.40;99.90;;;;;;2094992;28;20025;-72
2022/10/30 01:31:38;;;;;;;9.80;4.35;;;18.40;99.90;;;;;;2093329;28;20055;-72
2022/10/30 01:33:03;;;;;;;11.32;4.85;;;18.30;99.90;;;;;;2093188;28;20165;-72
2022/10/30 01:34:09;;;;;;;10.07;4.43;;;18.30;99.90;;;;;;2092569;28;20490;-72
2022/10/30 01:35:43;;;;;;;9.52;4.60;;;18.30;99.90;;;;;;2092163;28;20033;-72
2022/10/30 01:36:56;;;;;;;6.80;3.67;;;18.30;99.90;;;;;;2062057;28;20062;-72
2022/10/30 01:38:09;;;;;;;11.10;4.68;;;18.30;99.90;;;;;;2094480;28;20040;-72
2022/10/30 01:39:22;;;;;;;9.05;4.45;;;18.30;99.90;;;;;;2093428;28;20113;-72
2022/10/30 01:40:22;;;;;;;8.90;3.55;;;18.20;99.90;;;;;;2092637;28;20035;-72
2022/10/30 01:41:23;;;;;;;9.73;4.45;;;18.20;99.90;;;;;;2093036;28;20032;-72
2022/10/30 01:42:47;;;;;;;15.80;5.22;;;18.20;99.90;;;;;;2093674;28;20506;-72
2022/10/30 01:43:57;;;;;;;8.55;3.92;;;18.20;99.90;;;;;;2093751;28;20428;-72
2022/10/30 01:44:58;;;;;;;9.80;4.38;;;18.20;99.90;;;;;;2093185;28;20077;-72
2022/10/30 01:46:20;;;;;;;14.10;4.47;;;18.10;99.90;;;;;;2093736;28;20024;-72
2022/10/30 01:47:36;;;;;;;7.70;3.67;;;18.20;99.90;;;;;;2093242;28;20115;-72
2022/10/30 01:48:58;;;;;;;10.57;4.03;;;18.10;99.90;;;;;;2093084;28;20471;-72
2022/10/30 01:50:25;;;;;;;11.98;4.55;;;18.10;99.90;;;;;;2094274;28;20033;-72
2022/10/30 01:51:59;;;;;;;11.20;4.00;;;18.10;99.90;;;;;;2092657;28;20367;-72
2022/10/30 01:53:20;;;;;;;7.60;4.07;;;18.00;99.90;;;;;;2092377;28;20025;-72
2022/10/30 01:54:31;;;;;;;11.80;4.38;;;18.00;99.90;;;;;;2083838;28;20091;-72
2022/10/30 01:56:04;;;;;;;7.72;4.18;;;18.00;99.90;;;;;;2094326;28;20410;-72
2022/10/30 01:57:16;;;;;;;10.27;4.60;;;18.00;99.90;;;;;;2093755;28;20468;-72
2022/10/30 01:58:24;;;;;;;12.57;4.38;;;17.90;99.90;;;;;;2093060;28;20396;-72
2022/10/30 01:59:38;;;;;;;9.57;4.40;;;17.90;99.90;;;;;;2091520;28;20031;-72
2022/10/30 02:00:41;;;;;;;8.80;4.45;;;17.90;99.90;;;;;;2093506;28;20066;-72
2022/10/30 02:01:42;;;;;;;11.25;4.90;;;17.90;99.90;;;;;;2093285;28;20043;-72
2022/10/30 02:02:43;;;;;;;8.50;3.80;;;17.90;99.90;;;;;;2093025;28;20093;-72
2022/10/30 02:03:45;;;;;;;7.82;4.05;;;17.90;99.90;;;;;;2092790;28;20025;-72
2022/10/30 02:04:46;;;;;;;9.38;4.20;;;17.90;99.90;;;;;;2089285;28;20542;-72
2022/10/30 02:05:50;;;;;;;12.88;4.20;;;17.90;99.90;;;;;;2090873;28;20037;-72
2022/10/30 02:06:51;;;;;;;11.00;4.07;;;18.00;99.90;;;;;;2094763;28;20028;-72
2022/10/30 02:07:52;;;;;;;11.75;4.90;;;17.90;99.90;;;;;;2093717;28;20032;-72
2022/10/30 02:08:55;;;;;;;8.77;4.22;;;17.90;99.90;;;;;;2092585;28;20029;-72
2022/10/30 02:09:56;;;;;;;10.23;4.35;;;17.90;99.90;;;;;;2092678;28;20844;-72
2022/10/30 02:10:57;;;;;;;10.88;4.45;;;17.90;99.90;;;;;;2093729;28;20778;-72
2022/10/30 02:11:59;;;;;;;7.60;4.15;;;17.90;99.90;;;;;;2093435;28;20365;-72
2022/10/30 02:13:00;;;;;;;9.65;3.92;;;17.90;99.90;;;;;;2092905;28;20033;-72
2022/10/30 02:14:06;;;;;;;10.05;4.15;;;17.90;99.90;;;;;;2092359;28;20048;-72
2022/10/30 02:15:08;;;;;;;15.18;5.07;;;17.90;99.90;;;;;;2094113;28;20013;-72
2022/10/30 02:16:09;;;;;;;10.70;4.15;;;17.90;99.90;;;;;;2092602;28;20373;-72
2022/10/30 02:17:11;;;;;;;7.30;3.55;;;17.90;99.90;;;;;;2093659;28;20032;-72
2022/10/30 02:18:11;;;;;;;9.73;4.32;;;17.90;99.90;;;;;;2096588;28;20037;-72
2022/10/30 02:19:12;;;;;;;11.07;4.57;;;17.90;99.90;;;;;;2093254;28;20108;-72
2022/10/30 02:20:18;;;;;;;8.75;4.32;;;17.90;99.90;;;;;;2095614;28;20028;-72
2022/10/30 02:21:19;;;;;;;10.93;4.40;;;17.90;99.90;;;;;;2094140;28;20103;-72
2022/10/30 02:22:19;;;;;;;11.55;4.18;;;17.90;99.90;;;;;;2093167;28;20029;-72
2022/10/30 02:23:21;;;;;;;14.68;4.10;;;17.90;99.90;;;;;;2095577;28;20117;-72
2022/10/30 02:24:21;;;;;;;11.57;4.75;;;17.90;99.90;;;;;;2095026;28;20457;-72
2022/10/30 02:25:22;;;;;;;22.90;4.47;;;17.90;99.90;;;;;;2094769;28;20060;-72
2022/10/30 02:26:22;;;;;;;11.60;4.22;;;17.90;99.90;;;;;;2095718;28;20028;-72
2022/10/30 02:27:23;;;;;;;9.82;4.13;;;17.90;99.90;;;;;;2094834;28;20020;-72
2022/10/30 02:28:23;;;;;;;8.73;3.90;;;17.90;99.90;;;;;;2093220;28;20032;-72
2022/10/30 02:29:24;;;;;;;11.63;4.22;;;17.90;99.90;;;;;;2095147;28;20611;-72
2022/10/30 02:30:25;;;;;;;9.88;4.65;;;17.90;99.90;;;;;;2094752;28;20448;-72
2022/10/30 02:31:26;;;;;;;10.30;4.25;;;17.90;99.90;;;;;;2095448;28;20021;-72
2022/10/30 02:32:26;;;;;;;9.63;3.83;;;17.90;99.90;;;;;;2094879;28;20024;-72
2022/10/30 02:33:27;;;;;;;14.32;4.32;;;17.90;99.90;;;;;;2094579;28;20029;-72
2022/10/30 02:34:27;;;;;;;7.97;4.07;;;17.90;99.90;;;;;;2094682;28;20584;-72
2022/10/30 02:35:29;;;;;;;11.95;4.30;;;17.90;99.90;;;;;;2095388;28;20024;-72
2022/10/30 02:36:29;;;;;;;12.38;4.55;;;17.90;99.90;;;;;;2094547;28;20033;-72
2022/10/30 02:37:31;;;;;;;10.63;4.13;;;17.90;99.90;;;;;;2095571;28;20039;-72
2022/10/30 02:38:32;;;;;;;10.25;4.35;;;17.90;99.90;;;;;;2094781;28;20036;-72
2022/10/30 02:39:32;;;;;;;11.90;4.57;;;17.90;99.90;;;;;;2093066;28;21189;-72
2022/10/30 02:40:33;;;;;;;10.27;4.53;;;17.90;99.90;;;;;;2095315;28;20070;-72
2022/10/30 02:41:33;;;;;;;9.98;4.07;;;17.90;99.90;;;;;;2093785;28;20020;-72
2022/10/30 02:42:34;;;;;;;12.32;4.53;;;17.90;99.90;;;;;;2094954;28;20067;-72
2022/10/30 02:43:35;;;;;;;11.18;4.03;;;17.90;99.90;;;;;;2094972;28;20033;-72
2022/10/30 02:44:36;;;;;;;10.48;3.42;;;17.90;99.90;;;;;;2095630;28;20029;-72
2022/10/30 02:45:36;;;;;;;8.15;3.95;;;17.90;99.90;;;;;;2096285;28;20048;-72
2022/10/30 02:46:37;;;;;;;11.80;4.00;;;17.90;99.90;;;;;;2094499;28;20490;-72
2022/10/30 02:47:37;;;;;;;8.38;4.10;;;17.90;99.90;;;;;;2094055;28;20501;-72
2022/10/30 02:48:38;;;;;;;6.45;4.05;;;17.90;99.90;;;;;;2095942;28;20049;-72
2022/10/30 02:49:38;;;;;;;8.55;4.07;;;17.80;99.90;;;;;;2094313;28;20535;-72
2022/10/30 02:50:39;;;;;;;8.80;4.25;;;17.80;99.90;;;;;;2095529;28;20071;-72
2022/10/30 02:51:39;;;;;;;11.80;4.18;;;17.80;99.90;;;;;;2095089;28;20028;-72
2022/10/30 02:52:40;;;;;;;10.30;4.13;;;17.80;99.90;;;;;;2093827;28;20751;-72
2022/10/30 02:53:40;;;;;;;8.65;4.20;;;17.80;99.90;;;;;;2096190;28;20024;-72
2022/10/30 02:54:41;;;;;;;10.00;4.20;;;17.80;99.90;;;;;;2094967;28;20758;-72
2022/10/30 02:55:41;;;;;;;9.63;4.22;;;17.80;99.90;;;;;;2094094;28;20047;-72
2022/10/30 02:56:42;;;;;;;13.32;4.47;;;17.80;99.90;;;;;;2096541;28;20048;-72
2022/10/30 02:57:42;;;;;;;12.40;4.20;;;17.80;99.90;;;;;;2092940;28;20029;-71
2022/10/30 02:58:43;;;;;;;10.27;4.35;;;17.80;99.90;;;;;;2095581;28;20565;-71
2022/10/30 02:59:43;;;;;;;9.82;4.20;;;17.70;99.90;;;;;;2095664;28;20029;-71
2022/10/30 03:00:44;;;;;;;11.32;4.53;;;17.70;99.90;;;;;;2093501;28;20150;-71
2022/10/30 03:01:44;;;;;;;10.00;4.35;;;17.70;99.90;;;;;;2096481;28;20035;-71
2022/10/30 03:02:45;;;;;;;11.48;4.70;;;17.70;99.90;;;;;;2092783;28;20041;-71
2022/10/30 03:03:46;;;;;;;12.48;4.60;;;17.70;99.90;;;;;;2096525;28;20553;-71
2022/10/30 03:04:46;;;;;;;11.02;4.47;;;17.70;99.90;;;;;;2094980;28;20491;-72
2022/10/30 03:05:47;;;;;;;8.95;4.53;;;17.60;99.90;;;;;;2095459;28;20033;-72
2022/10/30 03:06:47;;;;;;;7.00;3.90;;;17.70;99.90;;;;;;2095869;28;20028;-72
2022/10/30 03:07:48;;;;;;;10.07;4.75;;;17.60;99.90;;;;;;2096292;28;20029;-72
2022/10/30 03:08:48;;;;;;;7.97;4.47;;;17.60;99.90;;;;;;2095307;28;20035;-72
2022/10/30 03:09:50;;;;;;;7.35;4.07;;;17.60;99.90;;;;;;2096975;28;20479;-72
2022/10/30 03:10:51;;;;;;;13.57;4.88;;;17.60;99.90;;;;;;2097152;28;20020;-72
2022/10/30 03:11:52;;;;;;;13.52;4.53;;;17.60;99.90;;;;;;2096943;28;20492;-72
2022/10/30 03:12:52;;;;;;;10.52;4.10;;;17.60;99.90;;;;;;2095716;28;20565;-72
2022/10/30 03:13:53;;;;;;;8.07;4.35;;;17.60;99.90;;;;;;2096917;28;20036;-72
2022/10/30 03:14:54;;;;;;;10.43;3.58;;;17.60;99.90;;;;;;2097896;28;20032;-72
2022/10/30 03:16:06;;;;;;;14.13;4.82;;;17.60;99.90;;;;;;2095993;28;20032;-72
2022/10/30 03:17:07;;;;;;;8.82;4.30;;;17.50;99.90;;;;;;2095869;28;20032;-72
2022/10/30 03:18:08;;;;;;;8.45;4.43;;;17.50;99.90;;;;;;2097101;28;20036;-72
2022/10/30 03:19:08;;;;;;;18.92;4.75;;;17.50;99.90;;;;;;2093943;28;20121;-72
2022/10/30 03:20:10;;;;;;;9.23;4.55;;;17.50;99.90;;;;;;2096003;28;20017;-72
2022/10/30 03:21:14;;;;;;;8.57;4.07;;;17.50;99.90;;;;;;2096109;28;20086;-72
2022/10/30 03:22:14;;;;;;;8.98;4.22;;;17.50;99.90;;;;;;2094733;28;20487;-72
2022/10/30 03:23:15;;;;;;;8.25;4.00;;;17.50;99.90;;;;;;2095177;28;20435;-72
2022/10/30 03:24:15;;;;;;;7.90;4.38;;;17.40;99.90;;;;;;2095553;28;20025;-72
2022/10/30 03:25:16;;;;;;;9.23;4.15;;;17.40;99.90;;;;;;2097389;28;20094;-72
2022/10/30 03:26:17;;;;;;;11.88;4.72;;;17.50;99.90;;;;;;2095377;28;20021;-72
2022/10/30 03:27:18;;;;;;;11.52;4.60;;;17.40;99.90;;;;;;2094410;28;20032;-72
2022/10/30 03:28:19;;;;;;;10.68;4.10;;;17.40;99.90;;;;;;2095940;28;20021;-72
2022/10/30 03:29:19;;;;;;;12.55;5.15;;;17.40;99.90;;;;;;2095970;28;20021;-72
2022/10/30 03:30:20;;;;;;;7.57;4.68;;;17.40;99.90;;;;;;2096469;28;20092;-72
2022/10/30 03:31:21;;;;;;;7.43;4.25;;;17.40;99.90;;;;;;2094399;28;20055;-72
2022/10/30 03:32:21;;;;;;;10.18;4.70;;;17.30;99.90;;;;;;2093659;28;20019;-72
2022/10/30 03:33:22;;;;;;;11.68;4.60;;;17.30;99.90;;;;;;2096490;28;20106;-72
2022/10/30 03:34:22;;;;;;;9.07;4.10;;;17.30;99.90;;;;;;2091926;28;20021;-72
2022/10/30 03:35:23;;;;;;;7.38;4.22;;;17.30;99.90;;;;;;2084992;28;20029;-72
2022/10/30 03:36:24;;;;;;;9.85;4.72;;;17.30;99.90;;;;;;2093495;28;20032;-72
2022/10/30 03:37:25;;;;;;;11.40;4.43;;;17.30;99.90;;;;;;2094778;28;20028;-72
2022/10/30 03:38:26;;;;;;;9.00;4.80;;;17.30;99.90;;;;;;2096928;28;20028;-72
2022/10/30 03:39:26;;;;;;;9.40;4.40;;;17.30;99.90;;;;;;2094590;28;20028;-72
2022/10/30 03:40:27;;;;;;;11.10;5.07;;;17.30;99.90;;;;;;2095965;28;20024;-72
2022/10/30 03:41:27;;;;;;;10.20;4.82;;;17.20;99.90;;;;;;2096210;28;20036;-72
2022/10/30 03:42:28;;;;;;;9.63;4.78;;;17.30;99.90;;;;;;2096479;28;20019;-72
2022/10/30 03:43:28;;;;;;;14.05;4.65;;;17.20;99.90;;;;;;2094585;28;20033;-72
2022/10/30 03:44:29;;;;;;;10.07;4.65;;;17.20;99.90;;;;;;2097328;28;20039;-72
2022/10/30 03:45:32;;;;;;;9.18;4.25;;;17.20;99.90;;;;;;2095492;28;20535;-72
2022/10/30 03:46:32;;;;;;;7.63;4.40;;;17.20;99.90;;;;;;2094909;28;20078;-72
2022/10/30 03:47:33;;;;;;;8.50;4.65;;;17.10;99.90;;;;;;2096255;28;20024;-72
2022/10/30 03:48:33;;;;;;;11.50;5.00;;;17.10;99.90;;;;;;2094073;28;20032;-72
2022/10/30 03:49:34;;;;;;;9.25;4.10;;;17.20;99.90;;;;;;2096271;28;20024;-72
2022/10/30 03:50:34;;;;;;;9.68;4.43;;;17.10;99.90;;;;;;2094260;28;20499;-72
2022/10/30 03:51:35;;;;;;;6.20;4.45;;;17.10;99.90;;;;;;2094458;28;20431;-72
2022/10/30 03:52:35;;;;;;;13.13;5.43;;;17.10;99.90;;;;;;2095399;28;20508;-72
2022/10/30 03:53:36;;;;;;;11.35;4.70;;;17.10;99.90;;;;;;2096636;28;20114;-72
2022/10/30 03:54:36;;;;;;;8.10;4.65;;;17.10;99.90;;;;;;2097494;28;20107;-72
2022/10/30 03:55:37;;;;;;;10.40;5.13;;;17.00;99.90;;;;;;2095461;28;20457;-72
2022/10/30 03:56:38;;;;;;;16.77;4.82;;;17.10;99.90;;;;;;2095829;28;20037;-72
2022/10/30 03:57:38;;;;;;;8.32;4.28;;;17.10;99.90;;;;;;2093839;28;20111;-72
2022/10/30 03:58:39;;;;;;;9.60;4.95;;;17.00;99.90;;;;;;2095049;28;20094;-72
2022/10/30 03:59:39;;;;;;;9.85;4.63;;;17.00;99.90;;;;;;2094090;28;20020;-72
2022/10/30 04:00:40;;;;;;;7.85;4.47;;;17.00;99.90;;;;;;2093109;28;20438;-72
2022/10/30 04:01:40;;;;;;;15.98;4.32;;;17.00;99.90;;;;;;2096478;28;20121;-72
2022/10/30 04:02:48;;;;;;;7.30;4.28;;;17.00;99.90;;;;;;2098280;28;20020;-72
2022/10/30 04:03:49;;;;;;;10.55;5.13;;;17.00;99.90;;;;;;2097447;28;20036;-72
2022/10/30 04:04:49;;;;;;;9.90;4.78;;;17.00;99.90;;;;;;2096941;28;20096;-72
2022/10/30 04:05:52;;;;;;;9.00;4.65;;;17.00;99.90;;;;;;2095015;28;20035;-72
2022/10/30 04:06:52;;;;;;;14.70;4.88;;;16.90;99.90;;;;;;2094372;28;20072;-72
2022/10/30 04:08:01;;;;;;;8.10;4.55;;;16.90;99.90;;;;;;2095363;28;20021;-72
2022/10/30 04:09:02;;;;;;;11.13;4.85;;;16.90;99.90;;;;;;2095914;28;20025;-72
2022/10/30 04:10:02;;;;;;;9.82;4.28;;;16.90;99.90;;;;;;2096034;28;20056;-72
2022/10/30 04:11:03;;;;;;;7.97;4.80;;;16.90;99.90;;;;;;2094986;28;20068;-72
2022/10/30 04:12:04;;;;;;;8.57;4.88;;;16.90;99.90;;;;;;2094856;28;20103;-72
2022/10/30 04:13:06;;;;;;;11.52;5.68;;;16.90;99.90;;;;;;2093107;28;20017;-72
2022/10/30 04:14:06;;;;;;;9.13;4.65;;;16.80;99.90;;;;;;2095097;28;20099;-72
2022/10/30 04:15:08;;;;;;;11.95;4.75;;;16.80;99.90;;;;;;2096858;28;20776;-72
2022/10/30 04:16:08;;;;;;;8.50;4.03;;;16.80;99.90;;;;;;2094537;28;20058;-71
2022/10/30 04:17:09;;;;;;;12.70;4.90;;;16.70;99.90;;;;;;2095360;28;20143;-71
2022/10/30 04:18:15;;;;;;;14.70;4.85;;;16.80;99.90;;;;;;2095848;28;20028;-71
2022/10/30 04:19:15;;;;;;;13.13;5.70;;;16.70;99.90;;;;;;2094626;28;20028;-71
2022/10/30 04:20:20;;;;;;;6.15;4.07;;;16.70;99.90;;;;;;2095449;28;20529;-71
2022/10/30 04:21:21;;;;;;;10.88;4.70;;;16.70;99.90;;;;;;2095846;28;20028;-71
2022/10/30 04:22:21;;;;;;;8.20;4.57;;;16.70;99.90;;;;;;2094994;28;20040;-71
2022/10/30 04:23:22;;;;;;;11.07;5.10;;;16.60;99.90;;;;;;2096188;28;20448;-71
2022/10/30 04:24:22;;;;;;;13.57;5.00;;;16.60;99.90;;;;;;2095359;28;20096;-71
2022/10/30 04:25:23;;;;;;;10.15;5.00;;;16.60;99.90;;;;;;2095115;28;20082;-71
2022/10/30 04:26:23;;;;;;;7.70;4.72;;;16.60;99.90;;;;;;2095116;28;20016;-71
2022/10/30 04:27:24;;;;;;;7.40;4.50;;;16.60;99.90;;;;;;2094047;28;20025;-71
2022/10/30 04:28:24;;;;;;;10.90;4.85;;;16.60;99.90;;;;;;2094947;28;20106;-71
2022/10/30 04:29:25;;;;;;;13.52;4.93;;;16.60;99.90;;;;;;2093602;28;20123;-71
2022/10/30 04:30:26;;;;;;;9.38;5.35;;;16.60;99.90;;;;;;2095666;28;20029;-71
2022/10/30 04:31:26;;;;;;;8.73;5.10;;;16.60;99.90;;;;;;2096688;28;20024;-71
2022/10/30 04:32:27;;;;;;;9.00;4.53;;;16.50;99.90;;;;;;2094667;28;20108;-72
2022/10/30 04:33:28;;;;;;;12.70;5.75;;;16.50;99.90;;;;;;2097202;28;20029;-72
2022/10/30 04:34:28;;;;;;;9.50;4.57;;;16.50;99.90;;;;;;2094643;28;20050;-72
2022/10/30 04:35:32;;;;;;;5.25;4.13;;;16.50;99.90;;;;;;2095875;28;20082;-72
2022/10/30 04:36:32;;;;;;;8.65;5.18;;;16.50;99.90;;;;;;2096146;28;20029;-72
2022/10/30 04:37:33;;;;;;;7.50;4.97;;;16.50;99.90;;;;;;2095643;28;20024;-72
2022/10/30 04:38:33;;;;;;;13.38;4.22;;;16.40;99.90;;;;;;2095537;28;20395;-72
2022/10/30 04:39:34;;;;;;;13.05;4.97;;;16.40;99.90;;;;;;2095533;28;20029;-72
2022/10/30 04:40:37;;;;;;;7.85;4.53;;;16.40;99.90;;;;;;2094664;28;20024;-72
2022/10/30 04:41:38;;;;;;;11.27;5.05;;;16.40;99.90;;;;;;2096933;28;20549;-72
2022/10/30 04:42:39;;;;;;;8.07;4.70;;;16.40;99.90;;;;;;2096656;28;20625;-72
2022/10/30 04:43:39;;;;;;;9.55;4.93;;;16.40;99.90;;;;;;2095367;28;20029;-72
2022/10/30 04:44:40;;;;;;;7.00;4.40;;;16.30;99.90;;;;;;2095298;28;20032;-72
2022/10/30 04:45:41;;;;;;;9.15;4.88;;;16.30;99.90;;;;;;2095268;28;20025;-72
2022/10/30 04:46:42;;;;;;;11.05;4.88;;;16.30;99.90;;;;;;2094321;28;20021;-72
2022/10/30 04:47:43;;;;;;;6.80;4.47;;;16.30;99.90;;;;;;2095737;28;20024;-72
2022/10/30 04:48:44;;;;;;;8.45;5.00;;;16.30;99.90;;;;;;2095605;28;20020;-72
2022/10/30 04:49:44;;;;;;;7.25;4.65;;;16.20;99.90;;;;;;2093621;28;20036;-72
2022/10/30 04:50:45;;;;;;;8.35;4.38;;;16.20;99.90;;;;;;2095353;28;20046;-72
2022/10/30 04:51:46;;;;;;;10.45;4.85;;;16.20;99.90;;;;;;2096001;28;20028;-72
2022/10/30 04:52:46;;;;;;;9.43;4.55;;;16.20;99.90;;;;;;2095915;28;20021;-72
2022/10/30 04:53:47;;;;;;;12.13;4.80;;;16.20;99.90;;;;;;2095388;28;20028;-72
2022/10/30 04:54:47;;;;;;;8.35;4.85;;;16.10;99.90;;;;;;2094922;28;20062;-72
2022/10/30 04:55:52;;;;;;;9.23;4.93;;;16.10;99.90;;;;;;2095612;28;20127;-72
2022/10/30 04:56:53;;;;;;;8.68;4.47;;;16.10;99.90;;;;;;2094944;28;20092;-72
2022/10/30 04:57:57;;;;;;;12.05;5.22;;;16.10;99.90;;;;;;2095818;28;20028;-72
2022/10/30 04:58:58;;;;;;;8.38;4.07;;;16.10;99.90;;;;;;2095026;28;20028;-72
2022/10/30 04:59:59;;;;;;;6.03;4.70;;;16.10;99.90;;;;;;2095490;28;20101;-72
2022/10/30 05:01:01;;;;;;;11.88;5.30;;;16.00;99.90;;;;;;2095355;28;20086;-72
2022/10/30 05:02:01;;;;;;;10.63;4.93;;;16.00;99.90;;;;;;2095482;28;20060;-72
2022/10/30 05:03:02;;;;;;;10.30;4.85;;;16.00;99.90;;;;;;2094812;28;20037;-72
2022/10/30 05:04:03;;;;;;;7.00;4.97;;;16.00;99.90;;;;;;2095545;28;20033;-71
2022/10/30 05:05:04;;;;;;;7.85;4.45;;;16.00;99.90;;;;;;2094821;28;20019;-71
2022/10/30 05:06:25;;;;;;;5.70;4.32;;;15.90;99.90;;;;;;2093590;28;20029;-71
2022/10/30 05:07:25;;;;;;;11.73;5.05;;;15.90;99.90;;;;;;2093357;28;20062;-71
2022/10/30 05:08:26;;;;;;;6.60;4.70;;;15.90;99.90;;;;;;2096735;28;20032;-71
2022/10/30 05:09:27;;;;;;;8.85;4.75;;;15.90;99.90;;;;;;2095155;28;20025;-71
2022/10/30 05:10:27;;;;;;;8.20;4.47;;;15.80;99.90;;;;;;2095813;28;20035;-71
2022/10/30 05:11:28;;;;;;;7.80;5.05;;;15.90;99.90;;;;;;2095883;28;20016;-71
2022/10/30 05:12:29;;;;;;;9.52;5.40;;;15.90;99.90;;;;;;2092233;28;20103;-71
2022/10/30 05:13:29;;;;;;;8.27;4.60;;;15.80;99.90;;;;;;2094822;28;20016;-71
2022/10/30 05:14:31;;;;;;;8.27;4.45;;;15.80;99.90;;;;;;2093521;28;20048;-71
2022/10/30 05:15:31;;;;;;;10.55;5.03;;;15.80;99.90;;;;;;2094692;28;20037;-71
2022/10/30 05:16:32;;;;;;;8.27;5.00;;;15.80;99.90;;;;;;2096234;28;20020;-71
2022/10/30 05:17:32;;;;;;;10.13;5.15;;;15.80;99.90;;;;;;2094253;28;20024;-71
2022/10/30 05:18:33;;;;;;;9.52;5.20;;;15.80;99.90;;;;;;2095887;28;20029;-72
2022/10/30 05:19:33;;;;;;;9.13;4.82;;;15.80;99.90;;;;;;2093653;28;20809;-72
2022/10/30 05:20:34;;;;;;;9.90;4.82;;;15.70;99.90;;;;;;2095506;28;20024;-72
2022/10/30 05:21:34;;;;;;;10.02;5.60;;;15.70;99.90;;;;;;2097668;28;20067;-72
2022/10/30 05:22:35;;;;;;;11.20;4.90;;;15.70;99.90;;;;;;2094251;28;20035;-72
2022/10/30 05:23:36;;;;;;;9.80;5.13;;;15.70;99.90;;;;;;2094361;28;20046;-72
2022/10/30 05:24:36;;;;;;;11.23;5.07;;;15.70;99.90;;;;;;2095327;28;20048;-72
2022/10/30 05:25:37;;;;;;;9.05;4.85;;;15.70;99.90;;;;;;2094506;28;20017;-72
2022/10/30 05:26:37;;;;;;;12.32;4.80;;;15.70;99.90;;;;;;2095596;28;20024;-72
2022/10/30 05:27:38;;;;;;;7.70;5.22;;;15.70;99.90;;;;;;2094317;28;20096;-72
2022/10/30 05:28:39;;;;;;;12.25;5.82;;;15.70;99.90;;;;;;2094445;28;20520;-72